PWSweather.com
Personal Weather Stations
Station Observations
MARRWS
Allansford VictoriaAU 3277

Allansford VictoriaAU 3277

Lat: -38.4003683814149, Lon: 142.569826841354

Elevation: 36

Station Type: Fine Offset X7062

http://home.vicnet.net.au/~marr/Weather/

Latest ConditionsUpdated 4:50:03 PM GMT+10:10 Sunday, Jul 23, 2017
Currently Today's Max Today's Min Today's Average
Temperature 53.8°F12.1°C 61.3°F16.3°C 51.3°F10.7°C 54.4°F12.4°C
Dew Point 48.7°F9.3°C 51.4°F10.8°C 41.2°F5.1°C 47.6°F8.7°C
Winds 5.0 mph WSW8.0 kmh WSW 10.1 mph SW16.3 kmh SW - 7.0 mph 11.3 kmh
Wind Gusts 10.7 mph17.2 kmh 20.6 mph33.2 kmh - -
Humidity 83% 91% 59% 78%
Pressure 29.80 in1009.1 mb 29.81 in1009.5 mb 29.66 in1004.4 mb -
Precipitation - 0.20 in5.1 mm - -
Hour Temp Dew Point Humidity Winds Wind Gusts Pressure Precip Precip Rate Daily Precip Total
04:50 PM 53.8°F12.1°C 48.7°F9.3°C 83% 5.0 mph WSW8.0 kmh WSW 10.7 mph17.2 kmh 29.80 in1009.1 mb 0.05 in1.3 mm 0.00 in0.0 mm 0.20 in5.1 mm
04:40 PM 53.8°F12.1°C 48.7°F9.3°C 83% 5.3 mph SSW8.5 kmh SSW 12.1 mph19.5 kmh 29.81 in1009.5 mb 0.05 in1.3 mm 0.00 in0.0 mm 0.20 in5.1 mm
04:30 PM 53.8°F12.1°C 48.7°F9.3°C 83% 6.0 mph SW9.7 kmh SW 13.0 mph20.9 kmh 29.81 in1009.5 mb 0.05 in1.3 mm 0.00 in0.0 mm 0.19 in4.8 mm
04:20 PM 53.8°F12.1°C 47.8°F8.8°C 80% 8.0 mph SW12.9 kmh SW 16.8 mph27.0 kmh 29.81 in1009.5 mb 0.05 in1.3 mm 0.24 in6.1 mm 0.19 in4.8 mm
04:10 PM 57.6°F14.2°C 48.6°F9.2°C 72% 6.1 mph SW9.8 kmh SW 14.5 mph23.3 kmh 29.80 in1009.1 mb 0.01 in0.3 mm 0.00 in0.0 mm 0.15 in3.8 mm
04:00 PM 59.0°F15.0°C 50.4°F10.2°C 73% 5.7 mph SW9.2 kmh SW 11.4 mph18.3 kmh 29.80 in1009.1 mb 0.01 in0.3 mm 0.00 in0.0 mm 0.15 in3.8 mm
03:50 PM 56.3°F13.5°C 49.2°F9.6°C 77% 5.8 mph SW9.3 kmh SW 10.7 mph17.2 kmh 29.80 in1009.1 mb 0.01 in0.3 mm 0.00 in0.0 mm 0.15 in3.8 mm
03:40 PM 56.1°F13.4°C 48.0°F8.9°C 74% 6.7 mph SW10.8 kmh SW 15.9 mph25.6 kmh 29.80 in1009.1 mb 0.01 in0.3 mm 0.06 in1.5 mm 0.15 in3.8 mm
03:30 PM 59.2°F15.1°C 49.4°F9.7°C 70% 5.7 mph SW9.2 kmh SW 12.1 mph19.5 kmh 29.79 in1008.8 mb 0.00 in0.0 mm 0.00 in0.0 mm 0.14 in3.6 mm
03:20 PM 59.9°F15.5°C 50.9°F10.5°C 72% 5.2 mph WSW8.4 kmh WSW 13.6 mph21.9 kmh 29.79 in1008.8 mb 0.00 in0.0 mm 0.00 in0.0 mm 0.14 in3.6 mm
03:10 PM 57.2°F14.0°C 48.6°F9.2°C 73% 8.5 mph WSW13.7 kmh WSW 18.3 mph29.5 kmh 29.79 in1008.8 mb 0.00 in0.0 mm 0.00 in0.0 mm 0.14 in3.6 mm
03:00 PM 59.4°F15.2°C 47.2°F8.4°C 64% 10.1 mph SW16.3 kmh SW 18.3 mph29.5 kmh 29.78 in1008.5 mb 0.00 in0.0 mm 0.00 in0.0 mm 0.14 in3.6 mm
02:50 PM 61.2°F16.2°C 48.5°F9.2°C 63% 8.5 mph SW13.7 kmh SW 15.9 mph25.6 kmh 29.78 in1008.5 mb 0.00 in0.0 mm 0.00 in0.0 mm 0.14 in3.6 mm
02:40 PM 59.9°F15.5°C 49.7°F9.8°C 69% 8.2 mph WSW13.2 kmh WSW 18.3 mph29.5 kmh 29.78 in1008.5 mb 0.00 in0.0 mm 0.00 in0.0 mm 0.14 in3.6 mm
02:30 PM 58.3°F14.6°C 49.3°F9.6°C 72% 8.3 mph SW13.4 kmh SW 19.7 mph31.7 kmh 29.78 in1008.5 mb 0.00 in0.0 mm 0.00 in0.0 mm 0.14 in3.6 mm
02:20 PM 57.6°F14.2°C 47.5°F8.6°C 69% 9.1 mph SW14.6 kmh SW 19.0 mph30.6 kmh 29.78 in1008.5 mb 0.00 in0.0 mm 0.00 in0.0 mm 0.14 in3.6 mm
02:10 PM 59.2°F15.1°C 48.2°F9.0°C 67% 8.1 mph SW13.0 kmh SW 20.6 mph33.2 kmh 29.78 in1008.5 mb 0.00 in0.0 mm 0.00 in0.0 mm 0.14 in3.6 mm
02:00 PM 60.3°F15.7°C 48.0°F8.9°C 64% 8.3 mph WSW13.4 kmh WSW 15.2 mph24.5 kmh 29.77 in1008.1 mb 0.00 in0.0 mm 0.00 in0.0 mm 0.14 in3.6 mm
01:50 PM 59.2°F15.1°C 47.0°F8.3°C 64% 10.1 mph SW16.3 kmh SW 19.0 mph30.6 kmh 29.77 in1008.1 mb 0.00 in0.0 mm 0.00 in0.0 mm 0.14 in3.6 mm
01:40 PM 60.8°F16.0°C 47.7°F8.7°C 62% 8.7 mph W14.0 kmh W 16.8 mph27.0 kmh 29.78 in1008.5 mb 0.00 in0.0 mm 0.00 in0.0 mm 0.14 in3.6 mm
01:30 PM 59.7°F15.4°C 49.2°F9.6°C 68% 7.6 mph WSW12.2 kmh WSW 14.5 mph23.3 kmh 29.77 in1008.1 mb 0.00 in0.0 mm 0.00 in0.0 mm 0.14 in3.6 mm
01:20 PM 58.1°F14.5°C 48.8°F9.3°C 71% 6.5 mph WSW10.5 kmh WSW 13.6 mph21.9 kmh 29.77 in1008.1 mb 0.00 in0.0 mm 0.00 in0.0 mm 0.14 in3.6 mm
01:10 PM 60.3°F15.7°C 49.3°F9.6°C 67% 8.9 mph SW14.3 kmh SW 15.2 mph24.5 kmh 29.77 in1008.1 mb 0.00 in0.0 mm 0.00 in0.0 mm 0.14 in3.6 mm
01:00 PM 61.3°F16.3°C 50.7°F10.4°C 68% 7.3 mph SW11.7 kmh SW 14.5 mph23.3 kmh 29.78 in1008.5 mb 0.00 in0.0 mm 0.00 in0.0 mm 0.14 in3.6 mm
12:50 PM 60.1°F15.6°C 50.3°F10.2°C 70% 7.4 mph W11.9 kmh W 15.2 mph24.5 kmh 29.78 in1008.5 mb 0.00 in0.0 mm 0.00 in0.0 mm 0.14 in3.6 mm
12:40 PM 59.9°F15.5°C 50.5°F10.3°C 71% 7.4 mph WSW11.9 kmh WSW 13.6 mph21.9 kmh 29.78 in1008.5 mb 0.00 in0.0 mm 0.00 in0.0 mm 0.14 in3.6 mm
12:30 PM 59.7°F15.4°C 51.1°F10.6°C 73% 8.0 mph W12.9 kmh W 15.2 mph24.5 kmh 29.78 in1008.5 mb 0.00 in0.0 mm 0.00 in0.0 mm 0.14 in3.6 mm
12:20 PM 59.2°F15.1°C 50.9°F10.5°C 74% 7.4 mph WNW11.9 kmh WNW 15.2 mph24.5 kmh 29.78 in1008.5 mb 0.00 in0.0 mm 0.00 in0.0 mm 0.14 in3.6 mm
12:10 PM 59.0°F15.0°C 51.1°F10.6°C 75% 5.8 mph W9.3 kmh W 14.5 mph23.3 kmh 29.78 in1008.5 mb 0.00 in0.0 mm 0.00 in0.0 mm 0.14 in3.6 mm
12:00 PM 57.2°F14.0°C 51.4°F10.8°C 81% 6.7 mph W10.8 kmh W 14.5 mph23.3 kmh 29.78 in1008.5 mb 0.00 in0.0 mm 0.00 in0.0 mm 0.14 in3.6 mm
11:50 AM 55.2°F12.9°C 50.2°F10.1°C 83% 5.8 mph W9.3 kmh W 10.7 mph17.2 kmh 29.78 in1008.5 mb 0.00 in0.0 mm 0.00 in0.0 mm 0.14 in3.6 mm
11:40 AM 55.4°F13.0°C 51.3°F10.7°C 86% 6.2 mph NW10.0 kmh NW 11.4 mph18.3 kmh 29.78 in1008.5 mb 0.00 in0.0 mm 0.00 in0.0 mm 0.14 in3.6 mm
11:30 AM 54.7°F12.6°C 51.2°F10.7°C 88% 5.9 mph W9.5 kmh W 11.4 mph18.3 kmh 29.78 in1008.5 mb 0.00 in0.0 mm 0.00 in0.0 mm 0.14 in3.6 mm
11:20 AM 53.6°F12.0°C 50.4°F10.2°C 89% 5.1 mph WNW8.2 kmh WNW 9.8 mph15.8 kmh 29.78 in1008.5 mb 0.00 in0.0 mm 0.00 in0.0 mm 0.14 in3.6 mm
11:10 AM 53.6°F12.0°C 50.4°F10.2°C 89% 5.7 mph W9.2 kmh W 11.4 mph18.3 kmh 29.78 in1008.5 mb 0.01 in0.3 mm 0.00 in0.0 mm 0.14 in3.6 mm
11:00 AM 53.6°F12.0°C 50.7°F10.4°C 90% 5.6 mph W9.0 kmh W 11.4 mph18.3 kmh 29.77 in1008.1 mb 0.01 in0.3 mm 0.00 in0.0 mm 0.14 in3.6 mm
10:50 AM 53.2°F11.8°C 50.7°F10.4°C 91% 7.3 mph WNW11.7 kmh WNW 13.0 mph20.9 kmh 29.77 in1008.1 mb 0.04 in1.0 mm 0.00 in0.0 mm 0.14 in3.6 mm
10:40 AM 53.1°F11.7°C 50.5°F10.3°C 91% 5.8 mph WNW9.3 kmh WNW 11.4 mph18.3 kmh 29.77 in1008.1 mb 0.05 in1.3 mm 0.00 in0.0 mm 0.14 in3.6 mm
10:30 AM 53.1°F11.7°C 50.5°F10.3°C 91% 5.9 mph WNW9.5 kmh WNW 12.1 mph19.5 kmh 29.77 in1008.1 mb 0.06 in1.5 mm 0.00 in0.0 mm 0.14 in3.6 mm
10:20 AM 52.7°F11.5°C 49.9°F9.9°C 90% 6.5 mph WNW10.5 kmh WNW 12.1 mph19.5 kmh 29.76 in1007.8 mb 0.09 in2.3 mm 0.06 in1.5 mm 0.14 in3.6 mm
10:10 AM 52.3°F11.3°C 49.5°F9.7°C 90% 7.2 mph W11.6 kmh W 13.0 mph20.9 kmh 29.77 in1008.1 mb 0.08 in2.0 mm 0.06 in1.5 mm 0.13 in3.3 mm
10:00 AM 52.3°F11.3°C 49.2°F9.6°C 89% 7.6 mph W12.2 kmh W 15.2 mph24.5 kmh 29.76 in1007.8 mb 0.07 in1.8 mm 0.01 in0.3 mm 0.12 in3.0 mm
09:50 AM 52.5°F11.4°C 49.4°F9.7°C 89% 6.3 mph NW10.1 kmh NW 12.1 mph19.5 kmh 29.76 in1007.8 mb 0.06 in1.5 mm 0.06 in1.5 mm 0.11 in2.8 mm
09:40 AM 52.3°F11.3°C 49.2°F9.6°C 89% 6.8 mph WNW10.9 kmh WNW 12.1 mph19.5 kmh 29.75 in1007.5 mb 0.05 in1.3 mm 0.18 in4.6 mm 0.09 in2.3 mm
09:30 AM 52.7°F11.5°C 49.3°F9.6°C 88% 6.6 mph W10.6 kmh W 12.1 mph19.5 kmh 29.75 in1007.5 mb 0.02 in0.5 mm 0.06 in1.5 mm 0.07 in1.8 mm
09:20 AM 52.9°F11.6°C 49.4°F9.7°C 88% 7.3 mph NW11.7 kmh NW 13.0 mph20.9 kmh 29.74 in1007.1 mb 0.01 in0.3 mm 0.00 in0.0 mm 0.05 in1.3 mm
09:10 AM 52.5°F11.4°C 49.1°F9.5°C 88% 6.4 mph W10.3 kmh W 13.6 mph21.9 kmh 29.73 in1006.8 mb 0.01 in0.3 mm 0.00 in0.0 mm 0.05 in1.3 mm
09:00 AM 52.3°F11.3°C 48.9°F9.4°C 88% 6.1 mph WNW9.8 kmh WNW 12.1 mph19.5 kmh 29.73 in1006.8 mb 0.01 in0.3 mm 0.00 in0.0 mm 0.05 in1.3 mm
08:50 AM 52.2°F11.2°C 48.7°F9.3°C 88% 5.3 mph W8.5 kmh W 13.6 mph21.9 kmh 29.72 in1006.4 mb 0.01 in0.3 mm 0.00 in0.0 mm 0.05 in1.3 mm
08:40 AM 52.0°F11.1°C 48.5°F9.2°C 88% 6.2 mph WNW10.0 kmh WNW 13.0 mph20.9 kmh 29.71 in1006.1 mb 0.01 in0.3 mm 0.00 in0.0 mm 0.05 in1.3 mm
08:30 AM 52.0°F11.1°C 48.2°F9.0°C 87% 6.8 mph W10.9 kmh W 14.5 mph23.3 kmh 29.70 in1005.8 mb 0.01 in0.3 mm 0.00 in0.0 mm 0.05 in1.3 mm
08:20 AM 52.2°F11.2°C 48.1°F8.9°C 86% 6.4 mph W10.3 kmh W 10.7 mph17.2 kmh 29.69 in1005.4 mb 0.01 in0.3 mm 0.00 in0.0 mm 0.04 in1.0 mm
08:10 AM 51.8°F11.0°C 48.1°F8.9°C 87% 6.4 mph WNW10.3 kmh WNW 14.5 mph23.3 kmh 29.69 in1005.4 mb 0.02 in0.5 mm 0.00 in0.0 mm 0.04 in1.0 mm
08:00 AM 51.3°F10.7°C 47.8°F8.8°C 88% 6.1 mph WNW9.8 kmh WNW 12.1 mph19.5 kmh 29.69 in1005.4 mb 0.02 in0.5 mm 0.00 in0.0 mm 0.04 in1.0 mm
07:50 AM 51.3°F10.7°C 48.1°F8.9°C 89% 7.0 mph NW11.3 kmh NW 12.1 mph19.5 kmh 29.69 in1005.4 mb 0.02 in0.5 mm 0.00 in0.0 mm 0.04 in1.0 mm
07:40 AM 51.3°F10.7°C 47.8°F8.8°C 88% 5.8 mph NW9.3 kmh NW 11.4 mph18.3 kmh 29.69 in1005.4 mb 0.02 in0.5 mm 0.00 in0.0 mm 0.04 in1.0 mm
07:30 AM 51.6°F10.9°C 48.2°F9.0°C 88% 5.9 mph W9.5 kmh W 11.4 mph18.3 kmh 29.69 in1005.4 mb 0.02 in0.5 mm 0.06 in1.5 mm 0.04 in1.0 mm
07:20 AM 52.0°F11.1°C 47.6°F8.7°C 85% 6.2 mph W10.0 kmh W 13.0 mph20.9 kmh 29.69 in1005.4 mb 0.01 in0.3 mm 0.06 in1.5 mm 0.02 in0.5 mm
07:10 AM 52.0°F11.1°C 47.6°F8.7°C 85% 6.4 mph W10.3 kmh W 13.6 mph21.9 kmh 29.69 in1005.4 mb 0.00 in0.0 mm 0.00 in0.0 mm 0.01 in0.3 mm
07:00 AM 51.8°F11.0°C 47.1°F8.4°C 84% 6.7 mph WNW10.8 kmh WNW 13.0 mph20.9 kmh 29.68 in1005.1 mb 0.00 in0.0 mm 0.00 in0.0 mm 0.01 in0.3 mm
06:50 AM 52.0°F11.1°C 47.3°F8.5°C 84% 7.1 mph W11.4 kmh W 13.0 mph20.9 kmh 29.68 in1005.1 mb 0.00 in0.0 mm 0.00 in0.0 mm 0.01 in0.3 mm
06:40 AM 52.2°F11.2°C 47.2°F8.4°C 83% 7.6 mph WNW12.2 kmh WNW 15.2 mph24.5 kmh 29.67 in1004.7 mb 0.00 in0.0 mm 0.00 in0.0 mm 0.01 in0.3 mm
06:30 AM 52.2°F11.2°C 47.2°F8.4°C 83% 8.1 mph WNW13.0 kmh WNW 15.9 mph25.6 kmh 29.68 in1005.1 mb 0.00 in0.0 mm 0.00 in0.0 mm 0.01 in0.3 mm
06:20 AM 52.0°F11.1°C 47.0°F8.3°C 83% 8.1 mph NW13.0 kmh NW 13.6 mph21.9 kmh 29.67 in1004.7 mb 0.00 in0.0 mm 0.00 in0.0 mm 0.01 in0.3 mm
06:10 AM 52.3°F11.3°C 47.0°F8.3°C 82% 7.7 mph NW12.4 kmh NW 14.5 mph23.3 kmh 29.67 in1004.7 mb 0.00 in0.0 mm 0.00 in0.0 mm 0.01 in0.3 mm
06:00 AM 52.5°F11.4°C 47.2°F8.4°C 82% 8.5 mph WNW13.7 kmh WNW 15.9 mph25.6 kmh 29.67 in1004.7 mb 0.00 in0.0 mm 0.00 in0.0 mm 0.01 in0.3 mm
05:50 AM 52.5°F11.4°C 47.2°F8.4°C 82% 8.3 mph NW13.4 kmh NW 15.9 mph25.6 kmh 29.67 in1004.7 mb 0.00 in0.0 mm 0.00 in0.0 mm 0.01 in0.3 mm
05:40 AM 52.5°F11.4°C 47.2°F8.4°C 82% 7.9 mph WNW12.7 kmh WNW 14.5 mph23.3 kmh 29.67 in1004.7 mb 0.00 in0.0 mm 0.00 in0.0 mm 0.01 in0.3 mm
05:30 AM 52.5°F11.4°C 47.2°F8.4°C 82% 8.1 mph NW13.0 kmh NW 15.2 mph24.5 kmh 29.67 in1004.7 mb 0.00 in0.0 mm 0.00 in0.0 mm 0.01 in0.3 mm
05:20 AM 52.3°F11.3°C 47.0°F8.3°C 82% 7.6 mph NW12.2 kmh NW 13.0 mph20.9 kmh 29.67 in1004.7 mb 0.00 in0.0 mm 0.00 in0.0 mm 0.01 in0.3 mm
05:10 AM 52.0°F11.1°C 46.7°F8.2°C 82% 6.4 mph WNW10.3 kmh WNW 12.1 mph19.5 kmh 29.66 in1004.4 mb 0.00 in0.0 mm 0.00 in0.0 mm 0.01 in0.3 mm
05:00 AM 51.6°F10.9°C 46.6°F8.1°C 83% 5.5 mph NW8.9 kmh NW 11.4 mph18.3 kmh 29.67 in1004.7 mb 0.00 in0.0 mm 0.00 in0.0 mm 0.01 in0.3 mm
04:50 AM 51.6°F10.9°C 46.6°F8.1°C 83% 6.0 mph NW9.7 kmh NW 10.7 mph17.2 kmh 29.67 in1004.7 mb 0.00 in0.0 mm 0.00 in0.0 mm 0.01 in0.3 mm
04:40 AM 51.4°F10.8°C 46.1°F7.8°C 82% 5.7 mph NW9.2 kmh NW 9.8 mph15.8 kmh 29.67 in1004.7 mb 0.00 in0.0 mm 0.00 in0.0 mm 0.01 in0.3 mm
04:30 AM 51.6°F10.9°C 46.0°F7.8°C 81% 6.0 mph WNW9.7 kmh WNW 10.7 mph17.2 kmh 29.67 in1004.7 mb 0.00 in0.0 mm 0.00 in0.0 mm 0.01 in0.3 mm
04:20 AM 51.8°F11.0°C 45.8°F7.7°C 80% 5.9 mph NW9.5 kmh NW 10.7 mph17.2 kmh 29.67 in1004.7 mb 0.00 in0.0 mm 0.00 in0.0 mm 0.01 in0.3 mm
04:10 AM 52.0°F11.1°C 45.7°F7.6°C 79% 6.0 mph NW9.7 kmh NW 12.1 mph19.5 kmh 29.67 in1004.7 mb 0.00 in0.0 mm 0.00 in0.0 mm 0.01 in0.3 mm
04:00 AM 52.2°F11.2°C 45.9°F7.7°C 79% 7.6 mph NW12.2 kmh NW 14.5 mph23.3 kmh 29.67 in1004.7 mb 0.00 in0.0 mm 0.00 in0.0 mm 0.01 in0.3 mm
03:50 AM 52.0°F11.1°C 45.7°F7.6°C 79% 7.2 mph NW11.6 kmh NW 13.6 mph21.9 kmh 29.67 in1004.7 mb 0.00 in0.0 mm 0.00 in0.0 mm 0.01 in0.3 mm
03:40 AM 52.2°F11.2°C 45.5°F7.5°C 78% 6.6 mph NW10.6 kmh NW 13.0 mph20.9 kmh 29.67 in1004.7 mb 0.00 in0.0 mm 0.00 in0.0 mm 0.01 in0.3 mm
03:30 AM 52.0°F11.1°C 45.7°F7.6°C 79% 7.4 mph NW11.9 kmh NW 12.1 mph19.5 kmh 29.68 in1005.1 mb 0.00 in0.0 mm 0.00 in0.0 mm 0.01 in0.3 mm
03:20 AM 52.0°F11.1°C 45.7°F7.6°C 79% 6.8 mph NW10.9 kmh NW 12.1 mph19.5 kmh 29.68 in1005.1 mb 0.00 in0.0 mm 0.00 in0.0 mm 0.01 in0.3 mm
03:10 AM 52.2°F11.2°C 45.5°F7.5°C 78% 6.8 mph WNW10.9 kmh WNW 12.1 mph19.5 kmh 29.68 in1005.1 mb 0.00 in0.0 mm 0.00 in0.0 mm 0.01 in0.3 mm
03:00 AM 52.5°F11.4°C 45.2°F7.3°C 76% 7.9 mph NW12.7 kmh NW 13.6 mph21.9 kmh 29.68 in1005.1 mb 0.00 in0.0 mm 0.00 in0.0 mm 0.01 in0.3 mm
02:50 AM 53.1°F11.7°C 45.4°F7.4°C 75% 8.3 mph NW13.4 kmh NW 14.5 mph23.3 kmh 29.69 in1005.4 mb 0.01 in0.3 mm 0.00 in0.0 mm 0.01 in0.3 mm
02:40 AM 53.2°F11.8°C 45.5°F7.5°C 75% 6.6 mph NW10.6 kmh NW 12.1 mph19.5 kmh 29.69 in1005.4 mb 0.01 in0.3 mm 0.00 in0.0 mm 0.01 in0.3 mm
02:20 AM 53.1°F11.7°C 46.0°F7.8°C 77% 6.3 mph NW10.1 kmh NW 11.4 mph18.3 kmh 29.69 in1005.4 mb 0.01 in0.3 mm 0.00 in0.0 mm 0.01 in0.3 mm
02:10 AM 52.5°F11.4°C 45.9°F7.7°C 78% 5.3 mph WNW8.5 kmh WNW 10.7 mph17.2 kmh 29.69 in1005.4 mb 0.01 in0.3 mm 0.00 in0.0 mm 0.01 in0.3 mm
02:00 AM 52.9°F11.6°C 45.9°F7.7°C 77% 6.8 mph WNW10.9 kmh WNW 18.3 mph29.5 kmh 29.70 in1005.8 mb 0.01 in0.3 mm 0.01 in0.3 mm 0.01 in0.3 mm
01:50 AM 53.4°F11.9°C 44.6°F7.0°C 72% 5.8 mph NW9.3 kmh NW 11.4 mph18.3 kmh 29.70 in1005.8 mb 0.00 in0.0 mm 0.00 in0.0 mm 0.00 in0.0 mm
01:40 AM 53.4°F11.9°C 44.3°F6.8°C 71% 5.9 mph NW9.5 kmh NW 11.4 mph18.3 kmh 29.69 in1005.4 mb 0.00 in0.0 mm 0.00 in0.0 mm 0.00 in0.0 mm
01:30 AM 53.2°F11.8°C 43.7°F6.5°C 70% 7.0 mph WNW11.3 kmh WNW 13.6 mph21.9 kmh 29.69 in1005.4 mb 0.00 in0.0 mm 0.00 in0.0 mm 0.00 in0.0 mm
01:20 AM 53.2°F11.8°C 43.7°F6.5°C 70% 7.3 mph NW11.7 kmh NW 12.1 mph19.5 kmh 29.70 in1005.8 mb 0.00 in0.0 mm 0.00 in0.0 mm 0.00 in0.0 mm
01:10 AM 53.6°F12.0°C 43.3°F6.3°C 68% 6.9 mph NW11.1 kmh NW 12.1 mph19.5 kmh 29.70 in1005.8 mb 0.00 in0.0 mm 0.00 in0.0 mm 0.00 in0.0 mm
01:00 AM 54.5°F12.5°C 41.8°F5.4°C 62% 8.1 mph WNW13.0 kmh WNW 14.5 mph23.3 kmh 29.70 in1005.8 mb 0.00 in0.0 mm 0.00 in0.0 mm 0.00 in0.0 mm
12:50 AM 54.5°F12.5°C 41.3°F5.2°C 61% 7.4 mph NW11.9 kmh NW 13.6 mph21.9 kmh 29.70 in1005.8 mb 0.00 in0.0 mm 0.00 in0.0 mm 0.00 in0.0 mm
12:40 AM 54.7°F12.6°C 41.5°F5.3°C 61% 7.2 mph NW11.6 kmh NW 15.2 mph24.5 kmh 29.70 in1005.8 mb 0.00 in0.0 mm 0.00 in0.0 mm 0.00 in0.0 mm
12:30 AM 54.9°F12.7°C 41.2°F5.1°C 60% 7.6 mph NW12.2 kmh NW 14.5 mph23.3 kmh 29.70 in1005.8 mb 0.00 in0.0 mm 0.00 in0.0 mm 0.00 in0.0 mm
12:20 AM 55.2°F12.9°C 41.6°F5.3°C 60% 8.6 mph NW13.8 kmh NW 14.5 mph23.3 kmh 29.71 in1006.1 mb 0.00 in0.0 mm 0.00 in0.0 mm 0.00 in0.0 mm
12:10 AM 55.8°F13.2°C 41.7°F5.4°C 59% 8.7 mph NW14.0 kmh NW 16.8 mph27.0 kmh 29.71 in1006.1 mb 0.00 in0.0 mm 0.00 in0.0 mm 0.00 in0.0 mm
12:00 AM 55.8°F13.2°C 41.7°F5.4°C 59% 8.9 mph NW14.3 kmh NW 20.6 mph33.2 kmh 29.72 in1006.4 mb 0.00 in0.0 mm 0.00 in0.0 mm 0.00 in0.0 mm